sensor_id;sensor_type;location;lat;lon;timestamp;P1;durP1;ratioP1;P2;durP2;ratioP2
70829;SDS011;58451;51.550;7.208;2023-12-04T00:00:28;16.00;;;5.30;;
70829;SDS011;58451;51.550;7.208;2023-12-04T00:02:01;17.40;;;5.60;;
70829;SDS011;58451;51.550;7.208;2023-12-04T00:03:33;17.10;;;5.90;;
70829;SDS011;58451;51.550;7.208;2023-12-04T00:05:10;20.30;;;6.50;;
70829;SDS011;58451;51.550;7.208;2023-12-04T00:06:42;18.10;;;5.50;;
70829;SDS011;58451;51.550;7.208;2023-12-04T00:08:14;17.70;;;6.10;;
70829;SDS011;58451;51.550;7.208;2023-12-04T00:09:46;20.10;;;6.90;;
70829;SDS011;58451;51.550;7.208;2023-12-04T00:11:18;18.30;;;6.80;;
70829;SDS011;58451;51.550;7.208;2023-12-04T00:12:51;20.80;;;6.40;;
70829;SDS011;58451;51.550;7.208;2023-12-04T00:14:23;21.50;;;6.80;;
70829;SDS011;58451;51.550;7.208;2023-12-04T00:15:55;18.80;;;6.10;;
70829;SDS011;58451;51.550;7.208;2023-12-04T00:17:27;17.10;;;6.10;;
70829;SDS011;58451;51.550;7.208;2023-12-04T00:18:59;21.30;;;7.40;;
70829;SDS011;58451;51.550;7.208;2023-12-04T00:20:31;21.30;;;7.40;;
70829;SDS011;58451;51.550;7.208;2023-12-04T00:22:03;18.80;;;6.40;;
70829;SDS011;58451;51.550;7.208;2023-12-04T00:23:35;16.40;;;5.40;;
70829;SDS011;58451;51.550;7.208;2023-12-04T00:25:07;20.30;;;6.60;;
70829;SDS011;58451;51.550;7.208;2023-12-04T00:26:40;18.90;;;6.30;;
70829;SDS011;58451;51.550;7.208;2023-12-04T00:28:12;19.10;;;7.00;;
70829;SDS011;58451;51.550;7.208;2023-12-04T00:29:44;18.60;;;6.20;;
70829;SDS011;58451;51.550;7.208;2023-12-04T00:31:16;19.20;;;6.70;;
70829;SDS011;58451;51.550;7.208;2023-12-04T00:32:48;15.40;;;5.30;;
70829;SDS011;58451;51.550;7.208;2023-12-04T00:34:19;19.10;;;6.90;;
70829;SDS011;58451;51.550;7.208;2023-12-04T00:35:52;20.30;;;6.90;;
70829;SDS011;58451;51.550;7.208;2023-12-04T00:37:23;18.10;;;6.20;;
70829;SDS011;58451;51.550;7.208;2023-12-04T00:38:55;17.20;;;6.20;;
70829;SDS011;58451;51.550;7.208;2023-12-04T00:40:27;19.10;;;6.40;;
70829;SDS011;58451;51.550;7.208;2023-12-04T00:42:00;17.90;;;6.30;;
70829;SDS011;58451;51.550;7.208;2023-12-04T00:43:32;18.10;;;6.80;;
70829;SDS011;58451;51.550;7.208;2023-12-04T00:45:04;21.80;;;7.50;;
70829;SDS011;58451;51.550;7.208;2023-12-04T00:46:36;20.20;;;6.50;;
70829;SDS011;58451;51.550;7.208;2023-12-04T00:48:08;16.70;;;5.50;;
70829;SDS011;58451;51.550;7.208;2023-12-04T00:49:40;17.90;;;6.50;;
70829;SDS011;58451;51.550;7.208;2023-12-04T00:51:12;19.70;;;6.30;;
70829;SDS011;58451;51.550;7.208;2023-12-04T00:52:44;20.50;;;7.00;;
70829;SDS011;58451;51.550;7.208;2023-12-04T00:54:16;19.00;;;6.60;;
70829;SDS011;58451;51.550;7.208;2023-12-04T00:55:48;17.80;;;6.30;;
70829;SDS011;58451;51.550;7.208;2023-12-04T00:57:20;18.10;;;5.80;;
70829;SDS011;58451;51.550;7.208;2023-12-04T00:58:52;17.90;;;5.90;;
70829;SDS011;58451;51.550;7.208;2023-12-04T01:00:24;17.80;;;6.30;;
70829;SDS011;58451;51.550;7.208;2023-12-04T01:01:56;17.30;;;6.20;;
70829;SDS011;58451;51.550;7.208;2023-12-04T01:03:28;18.40;;;6.40;;
70829;SDS011;58451;51.550;7.208;2023-12-04T01:05:00;17.10;;;6.20;;
70829;SDS011;58451;51.550;7.208;2023-12-04T01:06:32;16.90;;;5.70;;
70829;SDS011;58451;51.550;7.208;2023-12-04T01:08:04;17.30;;;6.10;;
70829;SDS011;58451;51.550;7.208;2023-12-04T01:09:36;17.30;;;6.20;;
70829;SDS011;58451;51.550;7.208;2023-12-04T01:11:08;17.60;;;5.80;;
70829;SDS011;58451;51.550;7.208;2023-12-04T01:12:40;18.20;;;6.00;;
70829;SDS011;58451;51.550;7.208;2023-12-04T01:14:11;17.00;;;5.60;;
70829;SDS011;58451;51.550;7.208;2023-12-04T01:15:44;17.30;;;6.20;;
70829;SDS011;58451;51.550;7.208;2023-12-04T01:17:18;15.40;;;5.40;;
70829;SDS011;58451;51.550;7.208;2023-12-04T01:18:50;16.70;;;5.70;;
70829;SDS011;58451;51.550;7.208;2023-12-04T01:20:22;16.20;;;5.50;;
70829;SDS011;58451;51.550;7.208;2023-12-04T01:21:54;18.40;;;6.50;;
70829;SDS011;58451;51.550;7.208;2023-12-04T01:23:26;19.00;;;5.90;;
70829;SDS011;58451;51.550;7.208;2023-12-04T01:24:58;16.70;;;6.30;;
70829;SDS011;58451;51.550;7.208;2023-12-04T01:26:30;15.70;;;5.70;;
70829;SDS011;58451;51.550;7.208;2023-12-04T01:28:02;17.60;;;6.00;;
70829;SDS011;58451;51.550;7.208;2023-12-04T01:29:34;16.80;;;5.50;;
70829;SDS011;58451;51.550;7.208;2023-12-04T01:31:06;19.40;;;6.40;;
70829;SDS011;58451;51.550;7.208;2023-12-04T01:32:38;18.60;;;6.20;;
70829;SDS011;58451;51.550;7.208;2023-12-04T01:34:11;15.50;;;5.40;;
70829;SDS011;58451;51.550;7.208;2023-12-04T01:35:42;15.50;;;5.30;;
70829;SDS011;58451;51.550;7.208;2023-12-04T01:37:14;16.30;;;5.30;;
70829;SDS011;58451;51.550;7.208;2023-12-04T01:38:46;16.10;;;5.60;;
70829;SDS011;58451;51.550;7.208;2023-12-04T01:40:18;18.70;;;6.20;;
70829;SDS011;58451;51.550;7.208;2023-12-04T01:41:50;18.80;;;5.80;;
70829;SDS011;58451;51.550;7.208;2023-12-04T01:43:22;17.50;;;5.90;;
70829;SDS011;58451;51.550;7.208;2023-12-04T01:44:53;15.70;;;5.80;;
70829;SDS011;58451;51.550;7.208;2023-12-04T01:46:26;13.90;;;5.40;;
70829;SDS011;58451;51.550;7.208;2023-12-04T01:47:58;18.20;;;5.70;;
70829;SDS011;58451;51.550;7.208;2023-12-04T01:49:30;15.20;;;5.40;;
70829;SDS011;58451;51.550;7.208;2023-12-04T01:51:06;15.00;;;5.30;;
70829;SDS011;58451;51.550;7.208;2023-12-04T01:52:41;16.20;;;5.60;;
70829;SDS011;58451;51.550;7.208;2023-12-04T01:54:13;15.00;;;5.00;;
70829;SDS011;58451;51.550;7.208;2023-12-04T01:55:47;15.90;;;5.30;;
70829;SDS011;58451;51.550;7.208;2023-12-04T01:57:19;17.70;;;5.90;;
70829;SDS011;58451;51.550;7.208;2023-12-04T01:58:51;15.20;;;5.10;;
70829;SDS011;58451;51.550;7.208;2023-12-04T02:00:26;16.30;;;5.30;;
70829;SDS011;58451;51.550;7.208;2023-12-04T02:01:58;16.80;;;5.60;;
70829;SDS011;58451;51.550;7.208;2023-12-04T02:03:30;16.00;;;5.40;;
70829;SDS011;58451;51.550;7.208;2023-12-04T02:05:04;16.60;;;5.50;;
70829;SDS011;58451;51.550;7.208;2023-12-04T02:06:40;16.80;;;5.10;;
70829;SDS011;58451;51.550;7.208;2023-12-04T02:08:13;14.60;;;4.70;;
70829;SDS011;58451;51.550;7.208;2023-12-04T02:09:45;15.50;;;4.70;;
70829;SDS011;58451;51.550;7.208;2023-12-04T02:11:18;15.80;;;5.60;;
70829;SDS011;58451;51.550;7.208;2023-12-04T02:12:50;17.00;;;5.90;;
70829;SDS011;58451;51.550;7.208;2023-12-04T02:14:22;14.90;;;5.00;;
70829;SDS011;58451;51.550;7.208;2023-12-04T02:15:56;14.90;;;4.70;;
70829;SDS011;58451;51.550;7.208;2023-12-04T02:17:32;13.80;;;5.00;;
70829;SDS011;58451;51.550;7.208;2023-12-04T02:19:11;16.40;;;5.60;;
70829;SDS011;58451;51.550;7.208;2023-12-04T02:20:44;15.80;;;4.80;;
70829;SDS011;58451;51.550;7.208;2023-12-04T02:22:16;14.50;;;4.90;;
70829;SDS011;58451;51.550;7.208;2023-12-04T02:23:52;14.10;;;4.60;;
70829;SDS011;58451;51.550;7.208;2023-12-04T02:25:24;13.20;;;4.40;;
70829;SDS011;58451;51.550;7.208;2023-12-04T02:28:55;14.50;;;4.60;;
70829;SDS011;58451;51.550;7.208;2023-12-04T02:30:31;14.20;;;4.40;;
70829;SDS011;58451;51.550;7.208;2023-12-04T02:32:10;14.60;;;4.50;;
70829;SDS011;58451;51.550;7.208;2023-12-04T02:33:47;14.60;;;4.80;;
70829;SDS011;58451;51.550;7.208;2023-12-04T02:35:26;15.10;;;5.00;;
70829;SDS011;58451;51.550;7.208;2023-12-04T02:37:03;14.90;;;5.10;;
70829;SDS011;58451;51.550;7.208;2023-12-04T02:38:36;13.40;;;4.40;;
70829;SDS011;58451;51.550;7.208;2023-12-04T02:40:11;13.00;;;4.40;;
70829;SDS011;58451;51.550;7.208;2023-12-04T02:41:44;13.60;;;4.60;;
70829;SDS011;58451;51.550;7.208;2023-12-04T02:43:16;13.70;;;4.40;;
70829;SDS011;58451;51.550;7.208;2023-12-04T02:44:48;12.60;;;4.10;;
70829;SDS011;58451;51.550;7.208;2023-12-04T02:46:20;13.20;;;4.30;;
70829;SDS011;58451;51.550;7.208;2023-12-04T02:47:52;14.60;;;4.50;;
70829;SDS011;58451;51.550;7.208;2023-12-04T02:49:24;15.00;;;4.40;;
70829;SDS011;58451;51.550;7.208;2023-12-04T02:50:56;12.50;;;4.50;;
70829;SDS011;58451;51.550;7.208;2023-12-04T02:52:28;11.10;;;3.70;;
70829;SDS011;58451;51.550;7.208;2023-12-04T02:54:00;12.70;;;4.30;;
70829;SDS011;58451;51.550;7.208;2023-12-04T02:55:32;13.30;;;4.40;;
70829;SDS011;58451;51.550;7.208;2023-12-04T02:57:05;12.20;;;3.80;;
70829;SDS011;58451;51.550;7.208;2023-12-04T02:58:37;12.60;;;3.80;;
70829;SDS011;58451;51.550;7.208;2023-12-04T03:00:09;11.70;;;4.00;;
70829;SDS011;58451;51.550;7.208;2023-12-04T03:01:42;12.80;;;4.50;;
70829;SDS011;58451;51.550;7.208;2023-12-04T03:03:14;11.40;;;4.20;;
70829;SDS011;58451;51.550;7.208;2023-12-04T03:04:46;12.90;;;4.30;;
70829;SDS011;58451;51.550;7.208;2023-12-04T03:06:18;11.70;;;3.60;;
70829;SDS011;58451;51.550;7.208;2023-12-04T03:07:49;13.10;;;4.80;;
70829;SDS011;58451;51.550;7.208;2023-12-04T03:09:21;10.00;;;3.30;;
70829;SDS011;58451;51.550;7.208;2023-12-04T03:11:13;13.20;;;4.00;;
70829;SDS011;58451;51.550;7.208;2023-12-04T03:12:45;15.40;;;4.60;;
70829;SDS011;58451;51.550;7.208;2023-12-04T03:14:17;14.40;;;4.50;;
70829;SDS011;58451;51.550;7.208;2023-12-04T03:15:49;14.90;;;4.20;;
70829;SDS011;58451;51.550;7.208;2023-12-04T03:17:21;12.00;;;4.10;;
70829;SDS011;58451;51.550;7.208;2023-12-04T03:18:53;13.90;;;4.50;;
70829;SDS011;58451;51.550;7.208;2023-12-04T03:20:25;11.10;;;4.10;;
70829;SDS011;58451;51.550;7.208;2023-12-04T03:21:56;12.70;;;4.40;;
70829;SDS011;58451;51.550;7.208;2023-12-04T03:23:28;12.90;;;4.30;;
70829;SDS011;58451;51.550;7.208;2023-12-04T03:25:00;12.50;;;4.30;;
70829;SDS011;58451;51.550;7.208;2023-12-04T03:26:32;11.50;;;3.70;;
70829;SDS011;58451;51.550;7.208;2023-12-04T03:28:04;13.50;;;4.40;;
70829;SDS011;58451;51.550;7.208;2023-12-04T03:29:36;12.10;;;3.90;;
70829;SDS011;58451;51.550;7.208;2023-12-04T03:31:08;13.00;;;3.90;;
70829;SDS011;58451;51.550;7.208;2023-12-04T03:32:40;12.20;;;4.00;;
70829;SDS011;58451;51.550;7.208;2023-12-04T03:34:12;12.70;;;3.90;;
70829;SDS011;58451;51.550;7.208;2023-12-04T03:35:44;12.40;;;4.20;;
70829;SDS011;58451;51.550;7.208;2023-12-04T03:37:16;11.10;;;3.90;;
70829;SDS011;58451;51.550;7.208;2023-12-04T03:38:48;12.30;;;3.50;;
70829;SDS011;58451;51.550;7.208;2023-12-04T03:40:19;13.10;;;4.00;;
70829;SDS011;58451;51.550;7.208;2023-12-04T03:41:51;11.20;;;3.50;;
70829;SDS011;58451;51.550;7.208;2023-12-04T03:43:23;11.80;;;3.90;;
70829;SDS011;58451;51.550;7.208;2023-12-04T03:44:55;11.60;;;3.60;;
70829;SDS011;58451;51.550;7.208;2023-12-04T03:46:26;10.50;;;3.50;;
70829;SDS011;58451;51.550;7.208;2023-12-04T03:47:58;11.10;;;3.80;;
70829;SDS011;58451;51.550;7.208;2023-12-04T03:49:31;11.70;;;3.50;;
70829;SDS011;58451;51.550;7.208;2023-12-04T03:51:04;7.70;;;2.30;;
70829;SDS011;58451;51.550;7.208;2023-12-04T03:52:36;10.20;;;3.20;;
70829;SDS011;58451;51.550;7.208;2023-12-04T03:54:08;12.80;;;3.90;;
70829;SDS011;58451;51.550;7.208;2023-12-04T03:55:40;11.10;;;3.80;;
70829;SDS011;58451;51.550;7.208;2023-12-04T03:57:11;10.70;;;3.50;;
70829;SDS011;58451;51.550;7.208;2023-12-04T03:58:43;11.30;;;3.30;;
70829;SDS011;58451;51.550;7.208;2023-12-04T04:00:15;10.60;;;3.30;;
70829;SDS011;58451;51.550;7.208;2023-12-04T04:01:48;9.80;;;3.30;;
70829;SDS011;58451;51.550;7.208;2023-12-04T04:03:19;9.10;;;3.00;;
70829;SDS011;58451;51.550;7.208;2023-12-04T04:04:51;9.40;;;3.10;;
70829;SDS011;58451;51.550;7.208;2023-12-04T04:06:23;9.80;;;2.90;;
70829;SDS011;58451;51.550;7.208;2023-12-04T04:07:56;10.10;;;3.00;;
70829;SDS011;58451;51.550;7.208;2023-12-04T04:09:27;9.60;;;3.10;;
70829;SDS011;58451;51.550;7.208;2023-12-04T04:10:59;9.90;;;2.90;;
70829;SDS011;58451;51.550;7.208;2023-12-04T04:12:31;10.90;;;3.40;;
70829;SDS011;58451;51.550;7.208;2023-12-04T04:14:03;8.70;;;2.60;;
70829;SDS011;58451;51.550;7.208;2023-12-04T04:15:34;7.90;;;2.50;;
70829;SDS011;58451;51.550;7.208;2023-12-04T04:17:07;9.20;;;3.10;;
70829;SDS011;58451;51.550;7.208;2023-12-04T04:18:38;9.20;;;3.00;;
70829;SDS011;58451;51.550;7.208;2023-12-04T04:20:11;9.30;;;3.30;;
70829;SDS011;58451;51.550;7.208;2023-12-04T04:21:43;9.50;;;2.80;;
70829;SDS011;58451;51.550;7.208;2023-12-04T04:23:15;10.20;;;2.90;;
70829;SDS011;58451;51.550;7.208;2023-12-04T04:24:48;9.20;;;2.90;;
70829;SDS011;58451;51.550;7.208;2023-12-04T04:26:20;8.40;;;2.30;;
70829;SDS011;58451;51.550;7.208;2023-12-04T04:27:52;10.90;;;3.40;;
70829;SDS011;58451;51.550;7.208;2023-12-04T04:29:24;8.80;;;2.20;;
70829;SDS011;58451;51.550;7.208;2023-12-04T04:30:56;9.10;;;2.70;;
70829;SDS011;58451;51.550;7.208;2023-12-04T04:32:27;9.60;;;2.80;;
70829;SDS011;58451;51.550;7.208;2023-12-04T04:33:59;8.50;;;2.70;;
70829;SDS011;58451;51.550;7.208;2023-12-04T04:35:32;8.70;;;2.70;;
70829;SDS011;58451;51.550;7.208;2023-12-04T04:37:04;9.20;;;3.20;;
70829;SDS011;58451;51.550;7.208;2023-12-04T04:38:36;7.90;;;2.60;;
70829;SDS011;58451;51.550;7.208;2023-12-04T04:40:08;9.20;;;2.90;;
70829;SDS011;58451;51.550;7.208;2023-12-04T04:41:40;10.40;;;2.80;;
70829;SDS011;58451;51.550;7.208;2023-12-04T04:43:12;8.60;;;2.80;;
70829;SDS011;58451;51.550;7.208;2023-12-04T04:44:44;9.80;;;3.00;;
70829;SDS011;58451;51.550;7.208;2023-12-04T04:46:16;9.20;;;2.60;;
70829;SDS011;58451;51.550;7.208;2023-12-04T04:47:48;9.20;;;2.70;;
70829;SDS011;58451;51.550;7.208;2023-12-04T04:49:21;8.00;;;2.20;;
70829;SDS011;58451;51.550;7.208;2023-12-04T04:50:53;9.20;;;2.80;;
70829;SDS011;58451;51.550;7.208;2023-12-04T04:52:24;10.20;;;2.60;;
70829;SDS011;58451;51.550;7.208;2023-12-04T04:54:00;6.30;;;1.60;;
70829;SDS011;58451;51.550;7.208;2023-12-04T04:55:32;8.20;;;2.60;;
70829;SDS011;58451;51.550;7.208;2023-12-04T04:57:19;9.10;;;2.50;;
70829;SDS011;58451;51.550;7.208;2023-12-04T04:58:51;8.10;;;2.20;;
70829;SDS011;58451;51.550;7.208;2023-12-04T05:00:24;8.30;;;2.20;;
70829;SDS011;58451;51.550;7.208;2023-12-04T05:01:56;9.00;;;2.70;;
70829;SDS011;58451;51.550;7.208;2023-12-04T05:03:28;9.60;;;2.20;;
70829;SDS011;58451;51.550;7.208;2023-12-04T05:05:03;8.20;;;2.00;;
70829;SDS011;58451;51.550;7.208;2023-12-04T05:06:36;8.50;;;2.40;;
70829;SDS011;58451;51.550;7.208;2023-12-04T05:08:08;7.10;;;2.00;;
70829;SDS011;58451;51.550;7.208;2023-12-04T05:09:40;8.50;;;2.50;;
70829;SDS011;58451;51.550;7.208;2023-12-04T05:11:14;6.60;;;1.60;;
70829;SDS011;58451;51.550;7.208;2023-12-04T05:12:46;8.10;;;2.60;;
70829;SDS011;58451;51.550;7.208;2023-12-04T05:14:18;7.80;;;2.50;;
70829;SDS011;58451;51.550;7.208;2023-12-04T05:15:50;5.70;;;1.60;;
70829;SDS011;58451;51.550;7.208;2023-12-04T05:17:22;8.30;;;2.30;;
70829;SDS011;58451;51.550;7.208;2023-12-04T05:18:54;9.20;;;2.80;;
70829;SDS011;58451;51.550;7.208;2023-12-04T05:20:26;7.80;;;2.30;;
70829;SDS011;58451;51.550;7.208;2023-12-04T05:21:58;7.40;;;2.10;;
70829;SDS011;58451;51.550;7.208;2023-12-04T05:23:30;8.40;;;2.60;;
70829;SDS011;58451;51.550;7.208;2023-12-04T05:25:01;9.00;;;2.40;;
70829;SDS011;58451;51.550;7.208;2023-12-04T05:26:34;7.50;;;2.40;;
70829;SDS011;58451;51.550;7.208;2023-12-04T05:28:06;7.40;;;2.00;;
70829;SDS011;58451;51.550;7.208;2023-12-04T05:29:38;7.20;;;1.90;;
70829;SDS011;58451;51.550;7.208;2023-12-04T05:31:10;8.60;;;2.50;;
70829;SDS011;58451;51.550;7.208;2023-12-04T05:32:42;8.00;;;2.10;;
70829;SDS011;58451;51.550;7.208;2023-12-04T05:34:14;5.40;;;1.20;;
70829;SDS011;58451;51.550;7.208;2023-12-04T05:35:47;8.30;;;2.30;;
70829;SDS011;58451;51.550;7.208;2023-12-04T05:37:20;8.40;;;2.70;;
70829;SDS011;58451;51.550;7.208;2023-12-04T05:38:52;8.90;;;2.60;;
70829;SDS011;58451;51.550;7.208;2023-12-04T05:40:27;9.70;;;2.90;;
70829;SDS011;58451;51.550;7.208;2023-12-04T05:41:59;11.50;;;3.10;;
70829;SDS011;58451;51.550;7.208;2023-12-04T05:43:31;11.00;;;3.30;;
70829;SDS011;58451;51.550;7.208;2023-12-04T05:45:04;7.60;;;2.30;;
70829;SDS011;58451;51.550;7.208;2023-12-04T05:46:37;6.90;;;1.80;;
70829;SDS011;58451;51.550;7.208;2023-12-04T05:48:09;9.80;;;2.90;;
70829;SDS011;58451;51.550;7.208;2023-12-04T05:49:42;9.70;;;2.90;;
70829;SDS011;58451;51.550;7.208;2023-12-04T05:51:14;8.20;;;2.70;;
70829;SDS011;58451;51.550;7.208;2023-12-04T05:52:47;9.40;;;3.10;;
70829;SDS011;58451;51.550;7.208;2023-12-04T05:54:19;9.70;;;2.90;;
70829;SDS011;58451;51.550;7.208;2023-12-04T05:55:50;8.30;;;2.70;;
70829;SDS011;58451;51.550;7.208;2023-12-04T05:57:22;8.90;;;2.60;;
70829;SDS011;58451;51.550;7.208;2023-12-04T05:58:54;9.80;;;3.20;;
70829;SDS011;58451;51.550;7.208;2023-12-04T06:00:27;9.10;;;3.20;;
70829;SDS011;58451;51.550;7.208;2023-12-04T06:02:01;8.60;;;2.10;;
70829;SDS011;58451;51.550;7.208;2023-12-04T06:03:33;9.80;;;3.00;;
70829;SDS011;58451;51.550;7.208;2023-12-04T06:05:06;9.60;;;2.40;;
70829;SDS011;58451;51.550;7.208;2023-12-04T06:06:39;9.40;;;2.90;;
70829;SDS011;58451;51.550;7.208;2023-12-04T06:08:11;7.00;;;2.00;;
70829;SDS011;58451;51.550;7.208;2023-12-04T06:09:43;8.60;;;2.70;;
70829;SDS011;58451;51.550;7.208;2023-12-04T06:11:15;9.10;;;3.30;;
70829;SDS011;58451;51.550;7.208;2023-12-04T06:12:46;9.70;;;3.20;;
70829;SDS011;58451;51.550;7.208;2023-12-04T06:14:19;9.20;;;2.70;;
70829;SDS011;58451;51.550;7.208;2023-12-04T06:15:53;9.70;;;2.50;;
70829;SDS011;58451;51.550;7.208;2023-12-04T06:17:28;11.00;;;3.20;;
70829;SDS011;58451;51.550;7.208;2023-12-04T06:19:01;10.20;;;3.00;;
70829;SDS011;58451;51.550;7.208;2023-12-04T06:20:33;10.30;;;3.30;;
70829;SDS011;58451;51.550;7.208;2023-12-04T06:22:04;7.70;;;2.30;;
70829;SDS011;58451;51.550;7.208;2023-12-04T06:23:37;8.60;;;2.60;;
70829;SDS011;58451;51.550;7.208;2023-12-04T06:25:10;8.60;;;2.40;;
70829;SDS011;58451;51.550;7.208;2023-12-04T06:26:43;9.00;;;2.90;;
70829;SDS011;58451;51.550;7.208;2023-12-04T06:28:19;8.20;;;2.70;;
70829;SDS011;58451;51.550;7.208;2023-12-04T06:29:52;8.80;;;2.70;;
70829;SDS011;58451;51.550;7.208;2023-12-04T06:31:24;8.70;;;2.40;;
70829;SDS011;58451;51.550;7.208;2023-12-04T06:32:56;8.60;;;2.60;;
70829;SDS011;58451;51.550;7.208;2023-12-04T06:34:29;10.40;;;2.90;;
70829;SDS011;58451;51.550;7.208;2023-12-04T06:36:02;10.60;;;3.10;;
70829;SDS011;58451;51.550;7.208;2023-12-04T06:37:34;10.30;;;3.10;;
70829;SDS011;58451;51.550;7.208;2023-12-04T06:39:12;10.00;;;3.30;;
70829;SDS011;58451;51.550;7.208;2023-12-04T06:40:46;8.40;;;2.30;;
70829;SDS011;58451;51.550;7.208;2023-12-04T06:42:18;10.40;;;3.10;;
70829;SDS011;58451;51.550;7.208;2023-12-04T06:43:51;9.70;;;3.10;;
70829;SDS011;58451;51.550;7.208;2023-12-04T06:45:24;10.50;;;3.00;;
70829;SDS011;58451;51.550;7.208;2023-12-04T06:47:00;8.00;;;2.30;;
70829;SDS011;58451;51.550;7.208;2023-12-04T06:48:33;9.10;;;2.90;;
70829;SDS011;58451;51.550;7.208;2023-12-04T06:50:06;9.40;;;2.50;;
70829;SDS011;58451;51.550;7.208;2023-12-04T06:51:38;10.50;;;3.10;;
70829;SDS011;58451;51.550;7.208;2023-12-04T06:53:28;9.30;;;2.80;;
70829;SDS011;58451;51.550;7.208;2023-12-04T06:55:00;8.60;;;2.80;;
70829;SDS011;58451;51.550;7.208;2023-12-04T06:56:32;11.30;;;3.30;;
70829;SDS011;58451;51.550;7.208;2023-12-04T06:58:03;11.20;;;3.20;;
70829;SDS011;58451;51.550;7.208;2023-12-04T06:59:35;10.40;;;3.10;;
70829;SDS011;58451;51.550;7.208;2023-12-04T07:01:07;11.30;;;3.10;;
70829;SDS011;58451;51.550;7.208;2023-12-04T07:02:41;8.70;;;2.60;;
70829;SDS011;58451;51.550;7.208;2023-12-04T07:04:32;9.90;;;2.80;;
70829;SDS011;58451;51.550;7.208;2023-12-04T07:06:05;8.80;;;2.80;;
70829;SDS011;58451;51.550;7.208;2023-12-04T07:07:37;7.60;;;2.20;;
70829;SDS011;58451;51.550;7.208;2023-12-04T07:09:09;8.60;;;2.60;;
70829;SDS011;58451;51.550;7.208;2023-12-04T07:10:41;10.40;;;3.30;;
70829;SDS011;58451;51.550;7.208;2023-12-04T07:12:19;11.40;;;3.30;;
70829;SDS011;58451;51.550;7.208;2023-12-04T07:13:51;9.90;;;3.30;;
70829;SDS011;58451;51.550;7.208;2023-12-04T07:15:23;13.30;;;2.60;;
70829;SDS011;58451;51.550;7.208;2023-12-04T07:16:55;8.60;;;2.80;;
70829;SDS011;58451;51.550;7.208;2023-12-04T07:18:27;9.70;;;3.00;;
70829;SDS011;58451;51.550;7.208;2023-12-04T07:19:59;10.00;;;3.30;;
70829;SDS011;58451;51.550;7.208;2023-12-04T07:21:31;9.40;;;2.90;;
70829;SDS011;58451;51.550;7.208;2023-12-04T07:23:02;9.60;;;3.40;;
70829;SDS011;58451;51.550;7.208;2023-12-04T07:24:34;9.70;;;3.30;;
70829;SDS011;58451;51.550;7.208;2023-12-04T07:26:06;10.60;;;3.80;;
70829;SDS011;58451;51.550;7.208;2023-12-04T07:27:38;9.30;;;2.80;;
70829;SDS011;58451;51.550;7.208;2023-12-04T07:29:10;10.10;;;3.00;;
70829;SDS011;58451;51.550;7.208;2023-12-04T07:30:42;8.40;;;2.60;;
70829;SDS011;58451;51.550;7.208;2023-12-04T07:32:14;8.30;;;2.80;;
70829;SDS011;58451;51.550;7.208;2023-12-04T07:33:46;9.60;;;3.20;;
70829;SDS011;58451;51.550;7.208;2023-12-04T07:35:18;8.80;;;2.70;;
70829;SDS011;58451;51.550;7.208;2023-12-04T07:36:50;9.80;;;3.20;;
70829;SDS011;58451;51.550;7.208;2023-12-04T07:38:22;10.00;;;2.90;;
70829;SDS011;58451;51.550;7.208;2023-12-04T07:39:58;7.00;;;2.10;;
70829;SDS011;58451;51.550;7.208;2023-12-04T07:41:31;9.40;;;2.70;;
70829;SDS011;58451;51.550;7.208;2023-12-04T07:43:02;8.30;;;2.70;;
70829;SDS011;58451;51.550;7.208;2023-12-04T07:44:34;9.30;;;2.90;;
70829;SDS011;58451;51.550;7.208;2023-12-04T07:46:09;8.60;;;2.20;;
70829;SDS011;58451;51.550;7.208;2023-12-04T07:47:42;7.20;;;1.80;;
70829;SDS011;58451;51.550;7.208;2023-12-04T07:49:14;7.90;;;2.20;;
70829;SDS011;58451;51.550;7.208;2023-12-04T07:50:46;9.40;;;3.30;;
70829;SDS011;58451;51.550;7.208;2023-12-04T07:52:18;12.10;;;3.10;;
70829;SDS011;58451;51.550;7.208;2023-12-04T07:53:51;9.30;;;2.90;;
70829;SDS011;58451;51.550;7.208;2023-12-04T07:55:23;10.10;;;2.90;;
70829;SDS011;58451;51.550;7.208;2023-12-04T07:56:54;9.40;;;3.10;;
70829;SDS011;58451;51.550;7.208;2023-12-04T07:58:26;9.80;;;2.90;;
70829;SDS011;58451;51.550;7.208;2023-12-04T07:59:58;10.20;;;3.20;;
70829;SDS011;58451;51.550;7.208;2023-12-04T08:01:30;10.50;;;3.00;;
70829;SDS011;58451;51.550;7.208;2023-12-04T08:03:02;7.10;;;2.10;;
70829;SDS011;58451;51.550;7.208;2023-12-04T08:04:34;9.50;;;3.20;;
70829;SDS011;58451;51.550;7.208;2023-12-04T08:06:06;9.00;;;2.50;;
70829;SDS011;58451;51.550;7.208;2023-12-04T08:07:38;8.10;;;2.70;;
70829;SDS011;58451;51.550;7.208;2023-12-04T08:09:10;9.20;;;3.30;;
70829;SDS011;58451;51.550;7.208;2023-12-04T08:10:42;8.80;;;2.80;;
70829;SDS011;58451;51.550;7.208;2023-12-04T08:12:14;8.40;;;2.80;;
70829;SDS011;58451;51.550;7.208;2023-12-04T08:13:46;10.00;;;2.90;;
70829;SDS011;58451;51.550;7.208;2023-12-04T08:15:18;9.40;;;3.00;;
70829;SDS011;58451;51.550;7.208;2023-12-04T08:16:50;8.30;;;2.80;;
70829;SDS011;58451;51.550;7.208;2023-12-04T08:18:22;11.40;;;2.90;;
70829;SDS011;58451;51.550;7.208;2023-12-04T08:19:54;9.20;;;3.00;;
70829;SDS011;58451;51.550;7.208;2023-12-04T08:21:26;10.20;;;3.20;;
70829;SDS011;58451;51.550;7.208;2023-12-04T08:22:58;10.40;;;3.40;;
70829;SDS011;58451;51.550;7.208;2023-12-04T08:24:30;17.50;;;4.40;;
70829;SDS011;58451;51.550;7.208;2023-12-04T08:26:02;9.60;;;3.00;;
70829;SDS011;58451;51.550;7.208;2023-12-04T08:27:35;10.00;;;3.10;;
70829;SDS011;58451;51.550;7.208;2023-12-04T08:29:07;10.40;;;3.10;;
70829;SDS011;58451;51.550;7.208;2023-12-04T08:30:39;11.50;;;3.00;;
70829;SDS011;58451;51.550;7.208;2023-12-04T08:32:11;9.90;;;3.10;;
70829;SDS011;58451;51.550;7.208;2023-12-04T08:33:43;9.50;;;3.30;;
70829;SDS011;58451;51.550;7.208;2023-12-04T08:35:15;8.70;;;3.00;;
70829;SDS011;58451;51.550;7.208;2023-12-04T08:36:47;8.80;;;2.40;;
70829;SDS011;58451;51.550;7.208;2023-12-04T08:38:19;11.40;;;3.20;;
70829;SDS011;58451;51.550;7.208;2023-12-04T08:39:52;10.10;;;3.10;;
70829;SDS011;58451;51.550;7.208;2023-12-04T08:41:27;9.30;;;2.60;;
70829;SDS011;58451;51.550;7.208;2023-12-04T08:43:00;6.50;;;1.90;;
70829;SDS011;58451;51.550;7.208;2023-12-04T08:44:31;8.50;;;2.70;;
70829;SDS011;58451;51.550;7.208;2023-12-04T08:46:06;9.50;;;2.80;;
70829;SDS011;58451;51.550;7.208;2023-12-04T08:47:39;8.90;;;2.70;;
70829;SDS011;58451;51.550;7.208;2023-12-04T08:49:11;8.80;;;2.80;;
70829;SDS011;58451;51.550;7.208;2023-12-04T08:50:43;10.30;;;2.70;;
70829;SDS011;58451;51.550;7.208;2023-12-04T08:52:15;8.20;;;2.60;;
70829;SDS011;58451;51.550;7.208;2023-12-04T08:53:47;10.50;;;3.30;;
70829;SDS011;58451;51.550;7.208;2023-12-04T08:55:19;9.80;;;3.20;;
70829;SDS011;58451;51.550;7.208;2023-12-04T08:56:51;7.00;;;2.40;;
70829;SDS011;58451;51.550;7.208;2023-12-04T08:58:23;8.90;;;2.80;;
70829;SDS011;58451;51.550;7.208;2023-12-04T08:59:55;10.60;;;2.30;;
70829;SDS011;58451;51.550;7.208;2023-12-04T09:01:27;10.30;;;2.50;;
70829;SDS011;58451;51.550;7.208;2023-12-04T09:02:59;8.90;;;2.40;;
70829;SDS011;58451;51.550;7.208;2023-12-04T09:04:41;8.90;;;2.60;;
70829;SDS011;58451;51.550;7.208;2023-12-04T09:06:15;9.10;;;3.00;;
70829;SDS011;58451;51.550;7.208;2023-12-04T09:07:47;8.50;;;2.50;;
70829;SDS011;58451;51.550;7.208;2023-12-04T09:09:21;9.40;;;2.80;;
70829;SDS011;58451;51.550;7.208;2023-12-04T09:10:53;9.50;;;2.90;;
70829;SDS011;58451;51.550;7.208;2023-12-04T09:12:48;10.00;;;2.50;;
70829;SDS011;58451;51.550;7.208;2023-12-04T09:14:20;7.50;;;2.40;;
70829;SDS011;58451;51.550;7.208;2023-12-04T09:15:51;8.90;;;2.50;;